Time;durP1;ratioP1;P1;durP2;ratioP2;P2;SDS_P1;SDS_P2;PMS_P1;PMS_P2;Temp;Humidity;BMP_temperature;BMP_pressure;BME280_temperature;BME280_humidity;BME280_pressure;Samples;Min_cycle;Max_cycle;Signal;HPM_P1;HPM_P2
2021/07/25 00:00:11;;;;;;;19.44;12.81;;;;;;;;;;358837;148;857859;-60
2021/07/25 00:01:14;;;;;;;19.87;12.82;;;;;;;;;;353368;148;858788;-59
2021/07/25 00:02:15;;;;;;;22.55;14.39;;;;;;;;;;356230;147;858371;-60
2021/07/25 00:03:17;;;;;;;18.44;12.49;;;;;;;;;;362781;147;857811;-60
2021/07/25 00:04:18;;;;;;;16.41;13.09;;;;;;;;;;359011;150;857329;-59
2021/07/25 00:05:20;;;;;;;19.66;13.19;;;;;;;;;;357994;147;859591;-60
2021/07/25 00:06:22;;;;;;;18.19;13.44;;;;;;;;;;358621;147;860004;-59
2021/07/25 00:07:24;;;;;;;18.78;13.09;;;;;;;;;;356462;151;860406;-59
2021/07/25 00:08:25;;;;;;;19.96;14.04;;;;;;;;;;356747;148;858709;-59
2021/07/25 00:09:27;;;;;;;19.01;13.09;;;;;;;;;;356073;148;859349;-59
2021/07/25 00:10:30;;;;;;;18.61;13.48;;;;;;;;;;357081;151;857116;-59
2021/07/25 00:11:32;;;;;;;17.84;13.01;;;;;;;;;;357123;151;859303;-59
2021/07/25 00:12:33;;;;;;;20.69;13.42;;;;;;;;;;357778;147;857142;-59
2021/07/25 00:13:39;;;;;;;19.63;13.66;;;;;;;;;;354941;147;857307;-59
2021/07/25 00:14:38;;;;;;;19.09;13.94;;;;;;;;;;358721;150;857271;-59
2021/07/25 00:15:40;;;;;;;18.89;12.31;;;;;;;;;;359409;148;859957;-59
2021/07/25 00:16:43;;;;;;;21.19;13.21;;;;;;;;;;357527;147;857930;-59
2021/07/25 00:17:44;;;;;;;20.09;13.37;;;;;;;;;;354164;152;866537;-59
2021/07/25 00:18:46;;;;;;;20.15;10.77;;;;;;;;;;354726;147;864747;-59
2021/07/25 00:19:48;;;;;;;29.81;14.11;;;;;;;;;;359660;147;857373;-60
2021/07/25 00:20:50;;;;;;;21.46;13.55;;;;;;;;;;357518;148;858706;-59
2021/07/25 00:21:53;;;;;;;22.56;13.69;;;;;;;;;;358512;150;865003;-59
2021/07/25 00:22:55;;;;;;;20.94;13.21;;;;;;;;;;357839;148;859164;-59
2021/07/25 00:23:59;;;;;;;18.56;13.08;;;;;;;;;;359215;147;858976;-59
2021/07/25 00:25:08;;;;;;;18.23;13.94;;;;;;;;;;356513;150;857359;-59
2021/07/25 00:26:06;;;;;;;22.98;14.05;;;;;;;;;;357758;148;857356;-60
2021/07/25 00:27:08;;;;;;;21.31;13.25;;;;;;;;;;356248;149;864678;-59
2021/07/25 00:28:14;;;;;;;19.56;13.55;;;;;;;;;;356728;150;859755;-59
2021/07/25 00:29:13;;;;;;;21.86;12.94;;;;;;;;;;357902;147;857232;-60
2021/07/25 00:30:15;;;;;;;17.83;13.15;;;;;;;;;;359185;147;859057;-59
2021/07/25 00:31:17;;;;;;;22.74;12.78;;;;;;;;;;358393;148;859677;-59
2021/07/25 00:32:18;;;;;;;20.67;13.46;;;;;;;;;;358162;147;857437;-59
2021/07/25 00:33:20;;;;;;;19.42;13.74;;;;;;;;;;356641;147;857331;-59
2021/07/25 00:34:21;;;;;;;18.03;13.56;;;;;;;;;;356864;148;858203;-59
2021/07/25 00:35:23;;;;;;;19.60;13.50;;;;;;;;;;354605;151;859655;-59
2021/07/25 00:36:26;;;;;;;18.33;13.13;;;;;;;;;;354260;151;858845;-59
2021/07/25 00:37:28;;;;;;;18.94;12.71;;;;;;;;;;357521;148;858125;-60
2021/07/25 00:38:29;;;;;;;21.18;13.51;;;;;;;;;;350068;153;865556;-59
2021/07/25 00:39:31;;;;;;;19.22;12.82;;;;;;;;;;352911;150;857699;-59
2021/07/25 00:40:35;;;;;;;20.45;13.67;;;;;;;;;;356300;148;857948;-59
2021/07/25 00:41:36;;;;;;;18.86;13.02;;;;;;;;;;353580;149;857170;-60
2021/07/25 00:42:38;;;;;;;16.68;12.96;;;;;;;;;;352689;151;857366;-60
2021/07/25 00:43:40;;;;;;;18.19;13.14;;;;;;;;;;355072;148;865053;-59
2021/07/25 00:44:41;;;;;;;19.83;13.41;;;;;;;;;;353130;149;857460;-59
2021/07/25 00:45:43;;;;;;;23.41;13.11;;;;;;;;;;352138;153;864777;-60
2021/07/25 00:46:46;;;;;;;21.66;13.04;;;;;;;;;;351697;148;857173;-60
2021/07/25 00:47:48;;;;;;;20.73;13.95;;;;;;;;;;355395;149;857243;-60
2021/07/25 00:48:49;;;;;;;23.26;13.94;;;;;;;;;;353529;150;857244;-59
2021/07/25 00:49:51;;;;;;;21.56;13.31;;;;;;;;;;351209;150;857245;-59
2021/07/25 00:50:54;;;;;;;18.52;12.79;;;;;;;;;;354776;148;857126;-59
2021/07/25 00:51:55;;;;;;;21.22;13.69;;;;;;;;;;352225;149;857270;-62
2021/07/25 00:52:57;;;;;;;20.67;12.92;;;;;;;;;;349391;154;857265;-60
2021/07/25 00:53:59;;;;;;;17.45;12.51;;;;;;;;;;352186;148;858955;-60
2021/07/25 00:55:00;;;;;;;19.62;12.90;;;;;;;;;;354128;151;858516;-59
2021/07/25 00:56:02;;;;;;;20.59;13.21;;;;;;;;;;357148;150;858389;-59
2021/07/25 00:57:04;;;;;;;22.55;13.13;;;;;;;;;;357131;150;865805;-59
2021/07/25 00:58:05;;;;;;;18.00;12.71;;;;;;;;;;354912;151;858149;-59
2021/07/25 00:59:07;;;;;;;21.36;12.93;;;;;;;;;;352449;149;859667;-60
2021/07/25 01:00:13;;;;;;;18.23;13.14;;;;;;;;;;352891;151;856353;-60
2021/07/25 01:01:17;;;;;;;20.60;13.49;;;;;;;43.59;100.00;112913.89;355255;148;856239;-60
2021/07/25 01:02:18;;;;;;;16.45;11.93;;;;;;;;;;351280;152;856547;-60
2021/07/25 01:03:34;;;;;;;15.41;10.84;;;;;;;;;;351974;151;856786;-60
2021/07/25 01:04:41;;;;;;;19.58;12.37;;;;;;;;;;355919;148;856344;-60
2021/07/25 01:05:47;;;;;;;22.53;12.32;;;;;;;;;;354183;149;856234;-60
2021/07/25 01:06:52;;;;;;;21.27;12.13;;;;;;;;;;350978;153;856173;-60
2021/07/25 01:07:55;;;;;;;18.07;12.28;;;;;;;;;;352798;151;856797;-60
2021/07/25 01:08:59;;;;;;;19.82;12.46;;;;;;;;;;354403;149;856413;-60
2021/07/25 01:10:06;;;;;;;18.42;12.82;;;;;;;;;;352492;153;856698;-60
2021/07/25 01:11:07;;;;;;;19.47;13.62;;;;;;;;;;351315;148;856066;-60
2021/07/25 01:12:11;;;;;;;18.46;13.53;;;;;;;;;;355208;148;856143;-60
2021/07/25 01:13:13;;;;;;;17.98;12.54;;;;;;;;;;357009;149;858642;-61
2021/07/25 01:14:19;;;;;;;19.04;12.87;;;;;;;;;;353395;150;856226;-60
2021/07/25 01:15:22;;;;;;;21.34;13.03;;;;;;;;;;355553;148;856277;-60
2021/07/25 01:16:23;;;;;;;21.40;12.96;;;;;;;;;;355086;149;856347;-60
2021/07/25 01:19:06;;;;;;;16.92;11.99;;;;;;;17.01;66.23;100016.38;369825;142;881217;-60
2021/07/25 01:20:10;;;;;;;18.68;12.40;;;;;;;16.91;66.18;100021.02;365130;145;857651;-60
2021/07/25 01:21:14;;;;;;;17.00;11.64;;;;;;;16.89;66.21;100017.59;362235;145;857186;-59
2021/07/25 01:22:16;;;;;;;32.30;13.18;;;;;;;16.85;66.19;100018.61;362882;146;857229;-60
2021/07/25 01:23:18;;;;;;;17.65;11.92;;;;;;;16.83;66.29;100018.67;362328;145;865944;-60
2021/07/25 01:24:20;;;;;;;20.19;12.66;;;;;;;16.80;66.29;100019.61;362477;144;858562;-59
2021/07/25 01:25:22;;;;;;;19.67;12.59;;;;;;;16.78;66.30;100018.80;360270;146;864598;-59
2021/07/25 01:26:27;;;;;;;19.71;13.00;;;;;;;16.77;66.27;100016.26;362509;147;865211;-59
2021/07/25 01:27:49;;;;;;;17.91;12.84;;;;;;;16.77;66.27;100016.26;359305;150;858931;-60
2021/07/25 01:28:53;;;;;;;20.09;12.45;;;;;;;64.80;100.00;112913.77;361560;144;858998;-60
2021/07/25 01:29:55;;;;;;;17.07;11.59;;;;;;;;;;362704;145;857394;-59
2021/07/25 01:30:58;;;;;;;17.77;11.50;;;;;;;;;;364936;147;868359;-59
2021/07/25 01:31:59;;;;;;;16.11;11.01;;;;;;;;;;360272;147;858569;-59
2021/07/25 01:33:02;;;;;;;20.65;11.51;;;;;;;;;;363630;146;861527;-59
2021/07/25 01:34:04;;;;;;;17.14;12.14;;;;;;;;;;362079;145;857786;-59
2021/07/25 01:35:06;;;;;;;20.36;12.26;;;;;;;;;;359515;149;860619;-59
2021/07/25 01:36:09;;;;;;;20.05;12.54;;;;;;;;;;355366;149;857313;-59
2021/07/25 01:37:11;;;;;;;23.63;12.92;;;;;;;;;;354674;149;859186;-59
2021/07/25 01:38:13;;;;;;;18.71;11.81;;;;;;;;;;354977;149;857238;-60
2021/07/25 01:39:14;;;;;;;21.09;12.62;;;;;;;;;;362040;145;864671;-59
2021/07/25 01:40:18;;;;;;;18.38;12.55;;;;;;;;;;361593;146;857412;-59
2021/07/25 01:41:20;;;;;;;19.90;12.59;;;;;;;;;;361725;145;857291;-59
2021/07/25 01:42:25;;;;;;;18.20;12.46;;;;;;;;;;361800;149;864814;-59
2021/07/25 01:43:27;;;;;;;18.39;12.26;;;;;;;;;;361442;145;859111;-59
2021/07/25 01:59:27;;;;;;;18.26;11.11;;;;;;;16.46;67.61;100017.24;374501;142;881480;-60
2021/07/25 02:00:29;;;;;;;19.93;12.18;;;;;;;16.36;67.57;100024.50;360898;144;857650;-60
2021/07/25 02:01:31;;;;;;;18.31;11.14;;;;;;;16.36;67.55;100024.50;361389;144;858255;-60
2021/07/25 02:02:33;;;;;;;17.76;11.96;;;;;;;16.35;67.60;100015.78;362626;144;864637;-59
2021/07/25 02:03:36;;;;;;;18.35;11.67;;;;;;;16.41;67.00;100025.21;364811;144;864479;-60
2021/07/25 02:04:38;;;;;;;16.22;12.05;;;;;;;16.41;67.00;100025.21;362620;145;857168;-59
2021/07/25 02:05:40;;;;;;;18.59;11.81;;;;;;;16.39;67.27;100020.92;364431;144;858988;-60
2021/07/25 02:06:42;;;;;;;19.42;12.71;;;;;;;16.35;67.23;100022.79;362446;147;865608;-59
2021/07/25 02:07:44;;;;;;;19.84;12.09;;;;;;;16.32;67.43;100042.02;362189;145;859033;-60
2021/07/25 02:08:46;;;;;;;19.95;12.55;;;;;;;16.32;67.43;100042.02;365149;145;865464;-59
2021/07/25 02:09:48;;;;;;;18.80;12.44;;;;;;;16.28;67.44;100022.11;365686;144;858889;-60
2021/07/25 02:10:51;;;;;;;17.96;12.47;;;;;;;16.28;67.44;100022.11;365467;145;864936;-59
2021/07/25 02:11:55;;;;;;;20.71;12.29;;;;;;;16.25;67.64;100022.20;362547;145;857434;-59
2021/07/25 02:12:57;;;;;;;15.81;11.58;;;;;;;16.24;67.62;100024.88;365356;147;858182;-59
2021/07/25 02:13:58;;;;;;;21.25;13.21;;;;;;;;;;364067;144;858716;-59
2021/07/25 02:15:00;;;;;;;20.00;12.90;;;;;;;;;;362177;145;866974;-59
2021/07/25 02:16:02;;;;;;;18.46;12.55;;;;;;;;;;364354;145;859043;-59
2021/07/25 02:17:03;;;;;;;21.16;12.64;;;;;;;;;;361366;147;865911;-59
2021/07/25 02:18:05;;;;;;;24.37;13.43;;;;;;;;;;358401;148;857401;-59
2021/07/25 02:19:07;;;;;;;19.72;12.39;;;;;;;;;;359500;147;857745;-59
2021/07/25 02:20:09;;;;;;;18.57;13.14;;;;;;;;;;352967;152;857127;-59
2021/07/25 02:21:11;;;;;;;21.93;13.34;;;;;;;;;;355420;148;857345;-59
2021/07/25 02:22:12;;;;;;;18.01;12.87;;;;;;;;;;358843;148;858346;-60
2021/07/25 02:23:14;;;;;;;17.83;12.84;;;;;;;;;;359345;147;857326;-59
2021/07/25 02:24:16;;;;;;;22.35;13.01;;;;;;;;;;359676;147;865268;-59
2021/07/25 02:25:17;;;;;;;19.09;12.76;;;;;;;;;;359927;148;857313;-59
2021/07/25 02:26:19;;;;;;;20.91;12.66;;;;;;;;;;359233;148;857338;-59
2021/07/25 02:27:21;;;;;;;19.03;13.34;;;;;;;;;;359454;149;857358;-59
2021/07/25 02:28:22;;;;;;;20.74;12.73;;;;;;;;;;358349;148;866584;-59
2021/07/25 02:29:24;;;;;;;17.31;12.55;;;;;;;;;;357262;147;859012;-59
2021/07/25 02:30:26;;;;;;;20.09;12.80;;;;;;;;;;358546;148;857405;-59
2021/07/25 02:31:28;;;;;;;19.52;12.49;;;;;;;;;;359215;147;857984;-59
2021/07/25 02:32:29;;;;;;;18.65;12.71;;;;;;;;;;360014;148;859447;-60
2021/07/25 02:33:31;;;;;;;19.29;12.66;;;;;;;;;;359246;147;857763;-59
2021/07/25 02:34:32;;;;;;;19.60;11.87;;;;;;;;;;361313;147;857239;-60
2021/07/25 02:35:34;;;;;;;19.01;11.05;;;;;;;;;;359615;147;857290;-59
2021/07/25 02:36:38;;;;;;;19.27;12.96;;;;;;;;;;356830;147;864447;-59
2021/07/25 02:37:39;;;;;;;20.59;11.49;;;;;;;;;;360525;147;857879;-59
2021/07/25 02:38:41;;;;;;;19.17;12.12;;;;;;;;;;359195;148;857191;-58
2021/07/25 02:39:42;;;;;;;20.18;12.39;;;;;;;;;;358293;148;857348;-59
2021/07/25 02:40:44;;;;;;;18.22;12.31;;;;;;;;;;359686;147;858605;-58
2021/07/25 02:41:46;;;;;;;19.37;12.79;;;;;;;;;;360341;148;858908;-59
2021/07/25 02:42:48;;;;;;;20.89;11.97;;;;;;;;;;359415;148;857254;-59
2021/07/25 02:43:49;;;;;;;16.84;12.26;;;;;;;;;;357838;147;858276;-60
2021/07/25 02:44:51;;;;;;;22.23;12.41;;;;;;;;;;359241;148;857219;-59
2021/07/25 02:45:52;;;;;;;17.15;12.66;;;;;;;;;;358757;148;857305;-59
2021/07/25 02:46:56;;;;;;;16.45;11.96;;;;;;;;;;356644;148;857359;-60
2021/07/25 02:47:57;;;;;;;18.19;12.21;;;;;;;;;;356443;149;858894;-59
2021/07/25 02:48:59;;;;;;;20.66;13.26;;;;;;;;;;355064;150;858361;-58
2021/07/25 02:50:00;;;;;;;17.24;12.61;;;;;;;;;;357954;148;857363;-58
2021/07/25 02:51:02;;;;;;;18.48;12.51;;;;;;;;;;358395;147;857276;-59
2021/07/25 02:52:04;;;;;;;18.00;12.33;;;;;;;;;;357278;147;859009;-58
2021/07/25 02:53:05;;;;;;;21.61;12.21;;;;;;;;;;358644;148;867069;-59
2021/07/25 02:54:07;;;;;;;16.16;11.94;;;;;;;;;;359177;147;864701;-60
2021/07/25 02:55:09;;;;;;;15.13;11.88;;;;;;;;;;361652;149;857100;-59
2021/07/25 02:56:12;;;;;;;15.85;11.68;;;;;;;;;;361157;148;857272;-60
2021/07/25 02:57:14;;;;;;;17.66;11.85;;;;;;;;;;356751;148;866025;-59
2021/07/25 02:58:15;;;;;;;16.49;11.93;;;;;;;;;;358662;148;857880;-61
2021/07/25 02:59:17;;;;;;;16.80;12.11;;;;;;;;;;357817;150;858662;-58
2021/07/25 03:00:21;;;;;;;18.92;12.59;;;;;;;;;;357053;148;859539;-60
2021/07/25 03:01:23;;;;;;;15.95;12.27;;;;;;;;;;357004;148;857338;-60
2021/07/25 03:02:24;;;;;;;18.98;12.87;;;;;;;;;;355837;149;859088;-60
2021/07/25 03:03:26;;;;;;;18.31;12.27;;;;;;;;;;356095;148;857062;-60
2021/07/25 03:04:27;;;;;;;19.99;12.51;;;;;;;;;;357367;149;857177;-58
2021/07/25 03:05:29;;;;;;;20.73;12.66;;;;;;;;;;357564;150;857176;-59
2021/07/25 03:06:32;;;;;;;18.73;13.44;;;;;;;;;;359151;148;859025;-60
2021/07/25 03:07:33;;;;;;;18.94;13.00;;;;;;;;;;356692;149;864795;-61
2021/07/25 03:08:35;;;;;;;20.48;13.10;;;;;;;;;;357975;149;859390;-61
2021/07/25 03:09:38;;;;;;;18.16;13.51;;;;;;;;;;356393;148;858972;-61
2021/07/25 03:18:38;;;;;;;16.34;11.57;;;;;;;16.61;68.41;100062.94;375732;141;878070;-61
2021/07/25 03:19:40;;;;;;;13.57;9.42;;;;;;;16.54;68.26;100058.80;371318;144;858577;-60
2021/07/25 03:20:44;;;;;;;14.97;10.61;;;;;;;16.58;68.30;100068.26;365714;147;865014;-63
2021/07/25 03:21:45;;;;;;;17.08;10.96;;;;;;;16.65;68.41;100068.03;367970;144;858898;-62
2021/07/25 03:22:47;;;;;;;15.61;10.86;;;;;;;16.72;68.10;100066.06;365942;144;865818;-62
2021/07/25 03:23:49;;;;;;;17.11;11.50;;;;;;;16.78;67.90;100062.42;366005;147;867166;-61
2021/07/25 03:24:51;;;;;;;17.41;10.75;;;;;;;16.90;67.38;100067.25;367842;144;865761;-61
2021/07/25 03:25:52;;;;;;;19.57;11.35;;;;;;;16.90;67.38;100067.25;369211;144;865819;-61
2021/07/25 03:26:55;;;;;;;16.65;11.29;;;;;;;16.92;67.56;100061.95;365992;147;866186;-61
2021/07/25 03:27:57;;;;;;;16.59;11.69;;;;;;;;;;359870;147;865375;-61
2021/07/25 03:28:58;;;;;;;16.06;11.73;;;;;;;;;;366622;144;864950;-61
2021/07/25 03:30:00;;;;;;;15.04;11.47;;;;;;;;;;369934;144;857416;-61
2021/07/25 03:31:01;;;;;;;17.89;11.68;;;;;;;;;;366017;147;857647;-62
2021/07/25 03:32:03;;;;;;;17.34;11.24;;;;;;;;;;368506;144;857237;-63
2021/07/25 03:33:05;;;;;;;16.63;11.21;;;;;;;;;;370837;144;859012;-61
2021/07/25 03:34:06;;;;;;;17.83;11.92;;;;;;;;;;366044;144;858269;-60
2021/07/25 03:35:08;;;;;;;20.14;11.81;;;;;;;;;;367411;144;864601;-61
2021/07/25 03:36:11;;;;;;;21.17;11.78;;;;;;;;;;366154;144;857260;-61
2021/07/25 03:37:12;;;;;;;19.65;11.78;;;;;;;;;;362616;144;857252;-61
2021/07/25 03:38:14;;;;;;;16.47;11.83;;;;;;;;;;359016;147;857745;-61
2021/07/25 03:39:17;;;;;;;19.09;11.98;;;;;;;;;;363263;146;858283;-60
2021/07/25 03:40:24;;;;;;;19.92;12.53;;;;;;;;;;364351;146;859041;-63
2021/07/25 03:41:25;;;;;;;18.96;12.37;;;;;;;;;;364571;145;858714;-62
2021/07/25 03:42:26;;;;;;;19.70;12.86;;;;;;;;;;363087;146;858576;-60
2021/07/25 03:43:28;;;;;;;17.73;12.79;;;;;;;;;;363274;146;857270;-61
2021/07/25 03:44:30;;;;;;;17.02;12.37;;;;;;;;;;361933;145;865211;-60
2021/07/25 03:45:31;;;;;;;19.69;13.33;;;;;;;;;;361462;147;857571;-60
2021/07/25 03:46:33;;;;;;;21.77;13.45;;;;;;;;;;363778;146;857392;-61
2021/07/25 03:47:35;;;;;;;21.48;13.39;;;;;;;;;;365701;147;857385;-62
2021/07/25 03:48:37;;;;;;;21.37;14.09;;;;;;;;;;365302;147;858081;-62
2021/07/25 03:49:39;;;;;;;22.26;14.16;;;;;;;;;;362665;146;865120;-61
2021/07/25 03:50:42;;;;;;;23.95;13.75;;;;;;;;;;353137;149;859001;-64
2021/07/25 03:51:44;;;;;;;19.41;14.02;;;;;;;;;;352146;150;857376;-61
2021/07/25 03:52:45;;;;;;;17.94;13.04;;;;;;;;;;363029;147;864696;-64
2021/07/25 03:53:47;;;;;;;21.36;12.76;;;;;;;;;;363196;146;858862;-66
2021/07/25 03:54:48;;;;;;;22.90;13.63;;;;;;;;;;363508;147;858981;-62
2021/07/25 03:55:50;;;;;;;19.66;14.08;;;;;;;;;;359480;146;864913;-61
2021/07/25 03:56:52;;;;;;;27.85;13.67;;;;;;;;;;364162;146;857465;-64
2021/07/25 03:57:56;;;;;;;18.00;13.36;;;;;;;;;;364012;145;857212;-63
2021/07/25 03:58:57;;;;;;;19.86;14.14;;;;;;;;;;361949;148;857240;-63
2021/07/25 03:59:58;;;;;;;20.32;12.84;;;;;;;;;;362270;146;857870;-65
2021/07/25 04:01:00;;;;;;;18.56;12.28;;;;;;;;;;361964;146;864785;-66
2021/07/25 04:02:03;;;;;;;17.15;12.48;;;;;;;;;;363926;147;864811;-63
2021/07/25 04:03:04;;;;;;;24.46;14.24;;;;;;;;;;361244;146;857318;-62
2021/07/25 04:04:06;;;;;;;21.05;13.39;;;;;;;;;;363305;146;857323;-65
2021/07/25 04:05:08;;;;;;;19.69;13.07;;;;;;;;;;364636;147;857164;-64
2021/07/25 04:06:10;;;;;;;20.72;13.26;;;;;;;;;;363707;147;857339;-62
2021/07/25 04:07:12;;;;;;;21.12;13.43;;;;;;;;;;363725;147;860193;-64
2021/07/25 04:08:15;;;;;;;20.97;14.04;;;;;;;;;;365936;146;857212;-66
2021/07/25 04:09:17;;;;;;;17.81;12.59;;;;;;;;;;365098;147;857393;-68
2021/07/25 04:10:19;;;;;;;19.62;13.45;;;;;;;;;;361127;146;859096;-63
2021/07/25 04:11:20;;;;;;;24.20;13.60;;;;;;;;;;362790;146;859436;-66
2021/07/25 04:12:22;;;;;;;19.60;13.63;;;;;;;;;;362519;147;864887;-67
2021/07/25 04:13:23;;;;;;;17.42;12.32;;;;;;;;;;359799;147;857310;-65
2021/07/25 04:14:25;;;;;;;18.05;13.49;;;;;;;;;;363199;146;857122;-65
2021/07/25 04:15:27;;;;;;;19.09;12.67;;;;;;;;;;364774;147;858977;-65
2021/07/25 04:16:29;;;;;;;20.55;13.29;;;;;;;;;;362464;147;858076;-64
2021/07/25 04:17:33;;;;;;;21.24;12.81;;;;;;;;;;362218;146;859005;-64
2021/07/25 04:18:34;;;;;;;19.62;12.41;;;;;;;;;;363500;147;859809;-61
2021/07/25 04:19:35;;;;;;;22.16;13.66;;;;;;;;;;360752;147;857229;-61
2021/07/25 04:20:37;;;;;;;18.93;13.15;;;;;;;;;;359878;146;865949;-61
2021/07/25 04:21:39;;;;;;;17.99;12.88;;;;;;;;;;363365;146;860231;-61
2021/07/25 04:22:40;;;;;;;21.09;13.25;;;;;;;;;;365583;147;858708;-61
2021/07/25 04:23:42;;;;;;;23.26;13.39;;;;;;;;;;362829;147;858437;-61
2021/07/25 04:24:43;;;;;;;24.72;13.37;;;;;;;;;;362520;146;857240;-60
2021/07/25 04:25:45;;;;;;;21.96;13.29;;;;;;;;;;360567;146;857250;-64
2021/07/25 04:26:48;;;;;;;21.91;13.44;;;;;;;;;;363497;147;857103;-61
2021/07/25 04:27:50;;;;;;;21.71;13.52;;;;;;;;;;363247;145;857223;-66
2021/07/25 04:28:52;;;;;;;21.71;12.98;;;;;;;;;;362758;146;857766;-63
2021/07/25 04:29:55;;;;;;;19.96;13.73;;;;;;;;;;361730;147;867667;-65
2021/07/25 04:30:57;;;;;;;19.43;13.35;;;;;;;;;;362738;147;864874;-64
2021/07/25 04:31:58;;;;;;;22.47;13.64;;;;;;;;;;362835;146;860121;-62
2021/07/25 04:33:01;;;;;;;18.89;13.59;;;;;;;;;;363970;147;865645;-62
2021/07/25 04:34:03;;;;;;;19.54;14.09;;;;;;;;;;362397;147;866519;-64
2021/07/25 04:35:07;;;;;;;18.50;13.86;;;;;;;;;;361791;146;858969;-65
2021/07/25 04:36:24;;;;;;;22.79;14.00;;;;;;;;;;362880;147;865038;-64
2021/07/25 04:37:25;;;;;;;20.56;13.52;;;;;;;;;;358046;147;864720;-68
2021/07/25 04:38:26;;;;;;;21.80;14.18;;;;;;;;;;361887;146;860234;-64
2021/07/25 04:39:28;;;;;;;22.46;14.33;;;;;;;;;;363720;145;858914;-63
2021/07/25 04:40:31;;;;;;;21.16;14.09;;;;;;;;;;361633;145;857188;-65
2021/07/25 04:41:43;;;;;;;22.41;13.73;;;;;;;;;;356811;150;859090;-65
2021/07/25 04:42:52;;;;;;;22.82;13.77;;;;;;;;;;363362;146;857343;-62
2021/07/25 04:44:02;;;;;;;22.21;14.06;;;;;;;;;;363575;147;859373;-65
2021/07/25 04:45:05;;;;;;;22.99;14.03;;;;;;;;;;360408;147;857292;-63
2021/07/25 04:46:09;;;;;;;20.88;13.97;;;;;;;;;;355645;148;857281;-62
2021/07/25 04:47:12;;;;;;;24.95;14.42;;;;;;;;;;357083;147;864865;-62
2021/07/25 04:48:16;;;;;;;20.11;14.03;;;;;;;;;;361556;147;859606;-65
2021/07/25 04:49:18;;;;;;;21.77;13.93;;;;;;;;;;362768;146;857926;-63
2021/07/25 04:50:22;;;;;;;19.67;13.56;;;;;;;;;;365220;147;865180;-63
2021/07/25 04:51:23;;;;;;;18.76;12.99;;;;;;;;;;362633;147;856756;-62
2021/07/25 04:52:25;;;;;;;20.61;13.13;;;;;;;;;;363123;147;857151;-62
2021/07/25 04:53:27;;;;;;;22.26;12.99;;;;;;;;;;362165;146;864756;-62
2021/07/25 04:54:30;;;;;;;17.83;12.71;;;;;;;;;;360288;147;858915;-62
2021/07/25 04:55:33;;;;;;;18.29;13.11;;;;;;;;;;362979;147;858852;-60
2021/07/25 04:56:38;;;;;;;20.07;13.22;;;;;;;;;;365367;147;859018;-67
2021/07/25 04:57:41;;;;;;;20.76;13.03;;;;;;;;;;363016;147;857656;-64
2021/07/25 04:58:44;;;;;;;18.97;12.43;;;;;;;;;;361221;147;857650;-68
2021/07/25 04:59:48;;;;;;;19.59;13.23;;;;;;;;;;364222;146;857397;-63
2021/07/25 05:00:53;;;;;;;20.04;13.40;;;;;;;;;;362515;147;857333;-61
2021/07/25 05:02:03;;;;;;;20.44;13.20;;;;;;;;;;365695;145;859136;-60
2021/07/25 05:03:05;;;;;;;20.34;13.38;;;;;;;;;;363290;146;865818;-59
2021/07/25 05:04:07;;;;;;;21.23;14.07;;;;;;;;;;364701;146;857886;-62
2021/07/25 05:05:09;;;;;;;21.22;13.32;;;;;;;;;;362507;147;858185;-61
2021/07/25 05:06:12;;;;;;;22.82;12.83;;;;;;;;;;362796;147;857219;-60
2021/07/25 05:07:14;;;;;;;23.04;13.09;;;;;;;;;;364461;146;857232;-59
2021/07/25 05:08:16;;;;;;;16.45;12.83;;;;;;;;;;360756;147;857297;-60
2021/07/25 05:09:18;;;;;;;21.36;12.33;;;;;;;;;;363065;147;865062;-63
2021/07/25 05:10:21;;;;;;;19.77;12.38;;;;;;;;;;362041;146;857686;-63
2021/07/25 05:11:34;;;;;;;18.85;12.59;;;;;;;;;;363393;146;865778;-60
2021/07/25 05:12:45;;;;;;;24.57;12.82;;;;;;;;;;352554;150;867569;-60
2021/07/25 05:13:50;;;;;;;22.16;12.66;;;;;;;;;;354396;150;859049;-60
2021/07/25 05:14:57;;;;;;;20.26;12.33;;;;;;;;;;357000;147;858850;-60
2021/07/25 05:15:58;;;;;;;17.01;12.69;;;;;;;;;;362021;147;857260;-60
2021/07/25 05:17:06;;;;;;;17.46;12.65;;;;;;;;;;362700;147;857202;-61
2021/07/25 05:18:08;;;;;;;26.08;12.52;;;;;;;;;;365029;147;858167;-61
2021/07/25 05:19:17;;;;;;;18.17;12.08;;;;;;;;;;362727;147;857529;-62
2021/07/25 05:20:20;;;;;;;22.83;12.71;;;;;;;;;;359842;147;857324;-60
2021/07/25 05:21:26;;;;;;;19.46;12.07;;;;;;;;;;361758;146;857431;-63
2021/07/25 05:22:48;;;;;;;17.52;12.19;;;;;;;;;;363380;147;857436;-62
2021/07/25 05:23:54;;;;;;;18.18;12.79;;;;;;;;;;359421;147;857274;-63
2021/07/25 05:24:56;;;;;;;22.23;12.98;;;;;;;;;;362330;147;859673;-61
2021/07/25 05:25:58;;;;;;;17.23;12.19;;;;;;;;;;361762;147;858792;-62
2021/07/25 05:27:00;;;;;;;20.07;12.57;;;;;;;;;;361317;146;857459;-63
2021/07/25 05:28:04;;;;;;;19.79;12.47;;;;;;;;;;363789;146;857342;-61
2021/07/25 05:29:05;;;;;;;19.73;12.44;;;;;;;;;;362249;147;857298;-60
2021/07/25 05:30:08;;;;;;;16.92;12.03;;;;;;;;;;359649;147;857239;-60
2021/07/25 05:31:10;;;;;;;21.06;11.84;;;;;;;;;;362008;146;857258;-60
2021/07/25 05:32:12;;;;;;;20.43;11.60;;;;;;;;;;361459;147;856439;-60
2021/07/25 05:33:13;;;;;;;18.24;11.81;;;;;;;;;;363386;147;856528;-61
2021/07/25 05:34:15;;;;;;;20.54;11.80;;;;;;;;;;361364;147;864522;-61
2021/07/25 05:35:17;;;;;;;16.61;12.01;;;;;;;;;;361953;146;857431;-64
2021/07/25 05:36:20;;;;;;;18.08;11.18;;;;;;;;;;360301;147;857326;-63
2021/07/25 05:37:22;;;;;;;16.28;12.49;;;;;;;;;;360412;147;857436;-63
2021/07/25 05:38:23;;;;;;;19.02;12.28;;;;;;;21.67;95.31;63295.25;362129;146;857368;-60
2021/07/25 05:39:25;;;;;;;17.98;10.82;;;;;;;;;;360012;147;857301;-64
2021/07/25 05:40:27;;;;;;;17.98;10.27;;;;;;;;;;363131;147;865144;-64
2021/07/25 05:41:29;;;;;;;17.22;11.10;;;;;;;;;;361587;147;859349;-63
2021/07/25 05:42:30;;;;;;;16.11;11.21;;;;;;;;;;359561;147;857268;-62
2021/07/25 05:43:32;;;;;;;18.40;11.12;;;;;;;;;;363822;147;857292;-63
2021/07/25 05:44:33;;;;;;;16.66;10.94;;;;;;;;;;364611;147;857381;-64
2021/07/25 05:45:35;;;;;;;16.13;10.59;;;;;;;;;;364501;147;857800;-64
2021/07/25 05:46:38;;;;;;;15.73;10.34;;;;;;;;;;358371;147;857344;-62
2021/07/25 05:47:40;;;;;;;14.52;10.99;;;;;;;;;;362274;147;865554;-64
2021/07/25 05:48:41;;;;;;;14.79;11.33;;;;;;;;;;362318;147;857322;-60
2021/07/25 05:49:43;;;;;;;14.90;10.64;;;;;;;;;;360026;146;857300;-60
2021/07/25 05:50:45;;;;;;;15.87;10.85;;;;;;;;;;358933;147;857290;-60
2021/07/25 05:51:47;;;;;;;19.33;11.09;;;;;;;;;;362230;147;861438;-60
2021/07/25 05:52:49;;;;;;;19.30;11.05;;;;;;;;;;361182;147;858869;-60
2021/07/25 05:53:51;;;;;;;16.60;10.65;;;;;;;;;;361213;147;857270;-59
2021/07/25 05:54:52;;;;;;;17.03;10.15;;;;;;;;;;363150;147;857298;-60
2021/07/25 05:55:54;;;;;;;14.88;10.11;;;;;;;;;;359790;146;857313;-62
2021/07/25 05:56:56;;;;;;;14.16;10.07;;;;;;;;;;361879;147;858227;-62
2021/07/25 05:58:01;;;;;;;15.77;10.14;;;;;;;;;;362659;147;868030;-61
2021/07/25 05:59:02;;;;;;;14.13;10.44;;;;;;;;;;361069;146;857836;-62
2021/07/25 06:00:05;;;;;;;15.19;10.30;;;;;;;;;;362226;147;857287;-62
2021/07/25 06:01:06;;;;;;;14.69;10.75;;;;;;;;;;359716;147;864888;-61
2021/07/25 06:02:08;;;;;;;18.41;10.73;;;;;;;;;;360244;147;857745;-62
2021/07/25 06:03:10;;;;;;;21.71;11.12;;;;;;;;;;361392;147;857173;-62
2021/07/25 06:04:11;;;;;;;15.57;10.06;;;;;;;;;;363227;147;857230;-62
2021/07/25 06:05:13;;;;;;;14.02;10.80;;;;;;;;;;359783;147;857253;-63
2021/07/25 06:06:15;;;;;;;17.03;10.24;;;;;;;;;;361816;146;857405;-61
2021/07/25 06:07:16;;;;;;;17.21;10.51;;;;;;;;;;361136;147;857849;-62
2021/07/25 06:08:18;;;;;;;17.33;10.21;;;;;;;;;;359039;147;857369;-62
2021/07/25 06:09:19;;;;;;;15.07;10.50;;;;;;;;;;363308;147;858352;-61
2021/07/25 06:10:22;;;;;;;15.78;9.85;;;;;;;;;;362526;147;857548;-61
2021/07/25 06:11:23;;;;;;;16.21;10.53;;;;;;;;;;364517;147;866008;-61
2021/07/25 06:12:25;;;;;;;19.58;11.72;;;;;;;;;;363600;147;857310;-60
2021/07/25 06:13:26;;;;;;;16.43;9.97;;;;;;;;;;361747;147;860587;-60